createdAt,value
2022-09-25T00:00:39.656Z,9.85
2022-09-25T00:03:29.224Z,9.80
2022-09-25T00:06:19.124Z,9.78
2022-09-25T00:09:10.038Z,8.80
2022-09-25T00:11:55.676Z,8.58
2022-09-25T00:14:43.196Z,8.70
2022-09-25T00:17:30.572Z,9.40
2022-09-25T00:20:20.581Z,9.58
2022-09-25T00:23:07.733Z,7.17
2022-09-25T00:25:56.139Z,8.33
2022-09-25T00:28:44.512Z,9.53
2022-09-25T00:31:32.593Z,9.38
2022-09-25T00:34:20.167Z,7.70
2022-09-25T00:37:08.197Z,9.15
2022-09-25T00:39:56.920Z,10.58
2022-09-25T00:42:44.449Z,9.15
2022-09-25T00:45:31.781Z,7.95
2022-09-25T00:48:19.066Z,7.55
2022-09-25T00:51:06.893Z,7.87
2022-09-25T00:53:54.370Z,6.78
2022-09-25T00:56:45.186Z,9.50
2022-09-25T00:59:35.464Z,6.35
2022-09-25T01:02:25.952Z,7.35
2022-09-25T01:05:16.125Z,9.00
2022-09-25T01:08:06.259Z,7.47
2022-09-25T01:10:53.456Z,8.88
2022-09-25T01:13:41.115Z,6.70
2022-09-25T01:16:40.387Z,6.20
2022-09-25T01:19:56.948Z,5.72
2022-09-25T01:23:04.019Z,5.17
2022-09-25T01:26:18.943Z,6.15
2022-09-25T01:29:29.240Z,6.58
2022-09-25T01:32:47.049Z,6.62
2022-09-25T01:35:52.192Z,6.78
2022-09-25T01:38:45.440Z,7.72
2022-09-25T01:41:35.958Z,6.40
2022-09-25T01:44:28.156Z,6.90
2022-09-25T01:47:18.643Z,7.87
2022-09-25T01:50:11.927Z,7.58
2022-09-25T01:53:02.434Z,6.72
2022-09-25T01:55:52.714Z,7.58
2022-09-25T01:58:43.379Z,6.85
2022-09-25T02:01:34.058Z,4.87
2022-09-25T02:04:27.441Z,6.40
2022-09-25T02:07:17.860Z,6.17
2022-09-25T02:10:11.077Z,8.35
2022-09-25T02:13:01.793Z,8.53
2022-09-25T02:15:57.774Z,6.47
2022-09-25T02:19:04.149Z,5.90
2022-09-25T02:22:06.473Z,6.70
2022-09-25T02:24:59.170Z,6.78
2022-09-25T02:27:47.394Z,7.30
2022-09-25T02:30:34.917Z,7.10
2022-09-25T02:33:22.356Z,8.03
2022-09-25T02:36:15.950Z,6.90
2022-09-25T02:39:05.520Z,9.13
2022-09-25T02:42:02.063Z,9.75
2022-09-25T02:45:28.401Z,8.63
2022-09-25T02:48:41.154Z,9.23
2022-09-25T02:51:31.649Z,9.70
2022-09-25T02:54:27.695Z,9.38
2022-09-25T02:57:30.279Z,8.93
2022-09-25T03:00:17.909Z,7.40
2022-09-25T03:03:08.328Z,6.97
2022-09-25T03:05:57.608Z,6.85
2022-09-25T03:08:48.878Z,7.50
2022-09-25T03:11:43.551Z,9.35
2022-09-25T03:14:30.678Z,12.50
2022-09-25T03:17:18.058Z,5.00
2022-09-25T03:20:05.840Z,5.12
2022-09-25T03:22:53.026Z,6.20
2022-09-25T03:25:40.934Z,6.55
2022-09-25T03:28:29.562Z,6.85
2022-09-25T03:31:17.135Z,5.92
2022-09-25T03:34:04.432Z,4.78
2022-09-25T03:36:51.975Z,6.05
2022-09-25T03:39:39.366Z,5.78
2022-09-25T03:42:28.273Z,5.15
2022-09-25T03:45:15.452Z,5.15
2022-09-25T03:48:02.750Z,5.12
2022-09-25T03:50:50.424Z,10.28
2022-09-25T03:53:39.171Z,5.83
2022-09-25T03:56:28.811Z,6.75
2022-09-25T03:59:17.001Z,4.53
2022-09-25T04:02:04.838Z,5.35
2022-09-25T04:04:53.477Z,4.92
2022-09-25T04:07:41.304Z,6.97
2022-09-25T04:10:28.889Z,6.00
2022-09-25T04:13:17.062Z,5.35
2022-09-25T04:16:08.282Z,6.62
2022-09-25T04:18:55.827Z,4.10
2022-09-25T04:21:43.272Z,8.68
2022-09-25T04:24:48.962Z,7.90
2022-09-25T04:27:36.760Z,4.87
2022-09-25T04:30:24.959Z,4.90
2022-09-25T04:33:30.039Z,7.53
2022-09-25T04:36:19.019Z,5.12
2022-09-25T04:39:06.424Z,5.05
2022-09-25T04:41:53.918Z,7.37
2022-09-25T04:44:41.059Z,4.75
2022-09-25T04:47:32.887Z,6.75
2022-09-25T04:50:20.861Z,6.47
2022-09-25T04:53:08.311Z,6.40
2022-09-25T04:55:57.427Z,9.58
2022-09-25T04:58:50.040Z,15.23
2022-09-25T05:01:37.246Z,14.87
2022-09-25T05:04:24.774Z,10.55
2022-09-25T05:07:12.073Z,17.10
2022-09-25T05:09:59.581Z,15.10
2022-09-25T05:12:47.860Z,22.52
2022-09-25T05:15:36.131Z,27.90
2022-09-25T05:18:24.901Z,27.35
2022-09-25T05:21:12.123Z,24.75
2022-09-25T05:23:59.830Z,29.80
2022-09-25T05:26:47.575Z,33.20
2022-09-25T05:29:34.942Z,32.67
2022-09-25T05:32:22.937Z,30.70
2022-09-25T05:35:10.058Z,30.97
2022-09-25T05:37:57.308Z,37.50
2022-09-25T05:40:44.887Z,36.25
2022-09-25T05:43:33.326Z,34.88
2022-09-25T05:46:20.466Z,33.73
2022-09-25T05:49:08.030Z,35.98
2022-09-25T05:51:55.564Z,38.63
2022-09-25T05:54:42.847Z,40.43
2022-09-25T05:57:32.189Z,40.10
2022-09-25T06:00:21.404Z,42.50
2022-09-25T06:03:10.857Z,39.92
2022-09-25T06:05:59.707Z,37.25
2022-09-25T06:08:47.108Z,39.35
2022-09-25T06:11:34.393Z,38.40
2022-09-25T06:14:22.449Z,37.42
2022-09-25T06:17:09.766Z,41.92
2022-09-25T06:19:56.938Z,43.45
2022-09-25T06:22:47.217Z,40.23
2022-09-25T06:25:34.587Z,34.18
2022-09-25T06:28:22.128Z,37.30
2022-09-25T06:31:09.278Z,37.20
2022-09-25T06:33:56.848Z,38.53
2022-09-25T06:36:44.384Z,34.23
2022-09-25T06:39:33.226Z,36.45
2022-09-25T06:42:20.564Z,36.30
2022-09-25T06:45:10.089Z,33.33
2022-09-25T06:48:05.782Z,30.65
2022-09-25T06:50:55.906Z,31.17
2022-09-25T06:53:43.163Z,30.70
2022-09-25T06:56:30.635Z,31.40
2022-09-25T06:59:18.271Z,34.08
2022-09-25T07:02:23.928Z,26.23
2022-09-25T07:05:11.328Z,25.08
2022-09-25T07:07:58.494Z,24.02
2022-09-25T07:10:53.998Z,28.25
2022-09-25T07:13:42.578Z,28.17
2022-09-25T07:16:32.431Z,23.75
2022-09-25T07:19:19.428Z,24.95
2022-09-25T07:22:06.907Z,26.55
2022-09-25T07:24:54.380Z,25.25
2022-09-25T07:27:41.670Z,27.62
2022-09-25T07:30:30.050Z,27.13
2022-09-25T07:33:17.766Z,25.23
2022-09-25T07:36:05.333Z,25.90
2022-09-25T07:38:53.871Z,22.65
2022-09-25T07:41:41.217Z,25.97
2022-09-25T07:44:31.534Z,23.77
2022-09-25T07:47:19.136Z,22.85
2022-09-25T07:50:08.409Z,22.85
2022-09-25T07:52:56.300Z,22.22
2022-09-25T07:55:44.620Z,21.93
2022-09-25T07:58:32.233Z,20.80
2022-09-25T08:01:19.451Z,21.70
2022-09-25T08:04:06.902Z,20.17
2022-09-25T08:06:54.589Z,20.02
2022-09-25T08:09:41.711Z,18.30
2022-09-25T08:12:34.831Z,20.60
2022-09-25T08:15:22.453Z,22.20
2022-09-25T08:18:09.719Z,20.10
2022-09-25T08:21:02.893Z,18.42
2022-09-25T08:23:52.280Z,20.30
2022-09-25T08:26:39.484Z,20.45
2022-09-25T08:29:26.512Z,20.95
2022-09-25T08:32:14.203Z,19.65
2022-09-25T08:35:02.028Z,20.85
2022-09-25T08:37:49.187Z,19.02
2022-09-25T08:40:43.095Z,19.42
2022-09-25T08:43:31.016Z,20.85
2022-09-25T08:46:39.685Z,22.42
2022-09-25T08:49:30.897Z,18.52
2022-09-25T08:52:21.574Z,21.23
2022-09-25T08:55:51.585Z,26.80
2022-09-25T08:58:42.619Z,22.25
2022-09-25T09:01:44.972Z,19.67
2022-09-25T09:04:44.588Z,21.05
2022-09-25T09:07:46.490Z,18.82
2022-09-25T09:10:48.220Z,20.77
2022-09-25T09:13:51.652Z,23.40
2022-09-25T09:16:44.933Z,21.55
2022-09-25T09:19:33.312Z,21.40
2022-09-25T09:22:29.519Z,22.42
2022-09-25T09:25:31.399Z,20.75
2022-09-25T09:28:24.580Z,23.55
2022-09-25T09:31:27.324Z,21.97
2022-09-25T09:34:21.100Z,23.60
2022-09-25T09:37:29.085Z,21.82
2022-09-25T09:40:28.561Z,24.52
2022-09-25T09:43:40.436Z,25.17
2022-09-25T09:47:04.514Z,22.17
2022-09-25T09:49:54.796Z,21.40
2022-09-25T09:52:45.125Z,19.48
2022-09-25T09:55:39.103Z,18.17
2022-09-25T09:58:29.669Z,21.27
2022-09-25T10:01:40.391Z,18.67
2022-09-25T10:04:17.385Z,16.40
2022-09-25T10:07:10.938Z,17.10
2022-09-25T10:09:58.163Z,16.67
2022-09-25T10:12:57.459Z,15.65
2022-09-25T10:15:52.689Z,15.13
2022-09-25T10:18:49.367Z,17.07
2022-09-25T10:21:46.204Z,12.90
2022-09-25T10:24:55.125Z,13.05
2022-09-25T10:27:49.003Z,12.10
2022-09-25T10:30:37.033Z,12.82
2022-09-25T10:33:27.098Z,11.33
2022-09-25T10:36:14.268Z,8.48
2022-09-25T10:39:31.088Z,7.05
2022-09-25T10:41:53.035Z,10.10
2022-09-25T10:44:40.485Z,7.72
2022-09-25T10:47:51.393Z,6.58
2022-09-25T10:50:38.579Z,5.37
2022-09-25T10:53:31.344Z,4.67
2022-09-25T10:56:37.935Z,6.20
2022-09-25T10:59:25.578Z,5.78
2022-09-25T11:02:31.311Z,9.15
2022-09-25T11:05:22.020Z,4.53
2022-09-25T11:08:09.455Z,5.62
2022-09-25T11:10:59.143Z,5.58
2022-09-25T11:13:53.601Z,5.58
2022-09-25T11:16:49.791Z,5.92
2022-09-25T11:19:39.373Z,7.23
2022-09-25T11:22:32.574Z,5.67
2022-09-25T11:25:42.541Z,7.53
2022-09-25T11:28:33.737Z,6.42
2022-09-25T11:31:39.181Z,8.53
2022-09-25T11:34:39.029Z,7.58
2022-09-25T11:37:29.520Z,5.85
2022-09-25T11:40:40.900Z,5.87
2022-09-25T11:43:55.596Z,8.30
2022-09-25T11:46:59.085Z,8.80
2022-09-25T11:49:53.114Z,9.20
2022-09-25T11:52:51.241Z,9.68
2022-09-25T11:56:15.235Z,8.80
2022-09-25T11:59:17.496Z,7.65
2022-09-25T12:02:22.596Z,10.05
2022-09-25T12:05:16.033Z,6.62
2022-09-25T12:08:23.936Z,7.90
2022-09-25T12:11:17.403Z,10.70
2022-09-25T12:14:13.919Z,7.03
2022-09-25T12:17:12.948Z,8.17
2022-09-25T12:20:07.407Z,5.20
2022-09-25T12:23:09.512Z,9.73
2022-09-25T12:26:08.799Z,8.90
2022-09-25T12:29:04.743Z,8.93
2022-09-25T12:32:08.744Z,6.13
2022-09-25T12:35:26.838Z,4.83
2022-09-25T12:38:35.228Z,6.78
2022-09-25T12:41:33.348Z,8.30
2022-09-25T12:44:44.812Z,5.37
2022-09-25T12:47:47.210Z,5.42
2022-09-25T12:50:37.980Z,5.55
2022-09-25T12:53:48.064Z,7.85
2022-09-25T12:56:41.699Z,6.80
2022-09-25T12:59:48.805Z,8.10
2022-09-25T13:02:48.943Z,6.87
2022-09-25T13:05:48.554Z,8.23
2022-09-25T13:08:41.655Z,5.85
2022-09-25T13:11:38.388Z,5.70
2022-09-25T13:14:34.802Z,5.37
2022-09-25T13:17:22.959Z,9.40
2022-09-25T13:20:38.124Z,5.03
2022-09-25T13:23:40.525Z,9.23
2022-09-25T13:26:30.172Z,7.03
2022-09-25T13:29:34.721Z,4.87
2022-09-25T13:32:24.381Z,4.47
2022-09-25T13:35:19.818Z,4.25
2022-09-25T13:38:36.391Z,3.27
2022-09-25T13:41:23.828Z,4.17
2022-09-25T13:44:40.484Z,4.37
2022-09-25T13:47:34.046Z,3.35
2022-09-25T13:50:33.701Z,2.98
2022-09-25T13:53:26.661Z,4.87
2022-09-25T13:56:18.878Z,4.95
2022-09-25T13:59:15.597Z,6.20
2022-09-25T14:02:24.158Z,3.22
2022-09-25T14:05:17.358Z,2.40
2022-09-25T14:08:13.636Z,2.75
2022-09-25T14:11:05.801Z,3.25
2022-09-25T14:13:56.345Z,5.00
2022-09-25T14:16:56.360Z,4.05
2022-09-25T14:19:48.350Z,3.08
2022-09-25T14:22:46.109Z,5.20
2022-09-25T14:25:40.077Z,4.37
2022-09-25T14:28:30.381Z,3.47
2022-09-25T14:31:21.227Z,4.25
2022-09-25T14:34:25.259Z,2.95
2022-09-25T14:37:29.366Z,5.30
2022-09-25T14:40:32.578Z,3.47
2022-09-25T14:43:56.001Z,4.97
2022-09-25T14:46:43.524Z,3.37
2022-09-25T14:49:33.914Z,5.35
2022-09-25T14:52:28.161Z,5.15
2022-09-25T14:55:19.490Z,4.20
2022-09-25T14:58:09.564Z,4.42
2022-09-25T15:01:00.243Z,5.45
2022-09-25T15:03:49.818Z,5.20
2022-09-25T15:06:42.439Z,12.73
2022-09-25T15:09:33.703Z,5.33
2022-09-25T15:12:29.261Z,6.95
2022-09-25T15:15:17.097Z,6.05
2022-09-25T15:18:05.189Z,4.37
2022-09-25T15:20:52.439Z,5.87
2022-09-25T15:23:41.478Z,3.08
2022-09-25T15:26:30.071Z,7.47
2022-09-25T15:29:20.958Z,6.10
2022-09-25T15:32:10.128Z,6.55
2022-09-25T15:35:17.237Z,9.00
2022-09-25T15:38:10.376Z,9.30
2022-09-25T15:40:58.706Z,7.55
2022-09-25T15:43:46.175Z,9.85
2022-09-25T15:46:38.939Z,11.60
2022-09-25T15:49:29.330Z,9.53
2022-09-25T15:52:30.296Z,6.33
2022-09-25T15:55:18.560Z,6.45
2022-09-25T15:58:09.080Z,10.20
2022-09-25T16:01:17.462Z,6.17
2022-09-25T16:04:25.027Z,4.67
2022-09-25T16:07:36.193Z,4.58
2022-09-25T16:10:26.443Z,6.28
2022-09-25T16:13:22.657Z,5.83
2022-09-25T16:16:26.940Z,6.28
2022-09-25T16:19:30.051Z,6.33
2022-09-25T16:22:23.733Z,5.60
2022-09-25T16:25:26.337Z,7.53
2022-09-25T16:28:19.886Z,6.78
2022-09-25T16:31:11.052Z,7.22
2022-09-25T16:34:00.413Z,4.58
2022-09-25T16:36:49.479Z,6.10
2022-09-25T16:39:38.626Z,2.87
2022-09-25T16:42:33.590Z,3.62
2022-09-25T16:45:31.290Z,6.20
2022-09-25T16:48:39.454Z,5.97
2022-09-25T16:51:27.370Z,6.78
2022-09-25T16:54:17.420Z,7.42
2022-09-25T16:57:05.308Z,6.62
2022-09-25T16:59:53.170Z,7.00
2022-09-25T17:02:43.477Z,13.95
2022-09-25T17:05:32.332Z,9.65
2022-09-25T17:08:23.724Z,8.60
2022-09-25T17:11:12.716Z,6.20
2022-09-25T17:14:00.732Z,6.85
2022-09-25T17:16:48.226Z,7.00
2022-09-25T17:19:35.603Z,7.78
2022-09-25T17:22:24.624Z,8.48
2022-09-25T17:25:15.316Z,7.25
2022-09-25T17:28:02.796Z,7.62
2022-09-25T17:30:50.053Z,10.05
2022-09-25T17:33:37.435Z,6.78
2022-09-25T17:36:24.858Z,4.95
2022-09-25T17:39:12.314Z,7.10
2022-09-25T17:41:59.748Z,6.70
2022-09-25T17:44:47.391Z,8.23
2022-09-25T17:47:34.669Z,7.35
2022-09-25T17:50:21.880Z,9.98
2022-09-25T17:53:18.213Z,8.73
2022-09-25T17:56:06.816Z,7.17
2022-09-25T17:58:55.869Z,6.95
2022-09-25T18:01:43.334Z,6.85
2022-09-25T18:04:30.424Z,6.83
2022-09-25T18:07:18.350Z,8.23
2022-09-25T18:10:05.951Z,12.28
2022-09-25T18:12:53.373Z,7.20
2022-09-25T18:15:43.928Z,4.30
2022-09-25T18:18:32.731Z,4.53
2022-09-25T18:21:37.836Z,8.00
2022-09-25T18:24:25.458Z,7.08
2022-09-25T18:27:13.860Z,8.53
2022-09-25T18:30:01.484Z,6.90
2022-09-25T18:32:49.665Z,10.85
2022-09-25T18:35:36.841Z,5.15
2022-09-25T18:38:24.326Z,7.95
2022-09-25T18:41:11.529Z,6.42
2022-09-25T18:43:58.969Z,11.33
2022-09-25T18:46:46.130Z,5.83
2022-09-25T18:49:33.206Z,13.72
2022-09-25T18:52:20.220Z,10.88
2022-09-25T18:55:08.054Z,5.83
2022-09-25T18:57:57.255Z,14.07
2022-09-25T19:00:44.814Z,8.10
2022-09-25T19:03:35.853Z,5.03
2022-09-25T19:06:22.675Z,9.83
2022-09-25T19:09:15.438Z,9.70
2022-09-25T19:11:58.707Z,5.45
2022-09-25T19:14:46.685Z,6.42
2022-09-25T19:17:35.570Z,7.90
2022-09-25T19:20:23.178Z,9.48
2022-09-25T19:23:10.803Z,6.47
2022-09-25T19:26:02.129Z,8.18
2022-09-25T19:28:49.741Z,9.50
2022-09-25T19:31:37.659Z,12.70
2022-09-25T19:34:25.464Z,10.25
2022-09-25T19:37:12.935Z,10.15
2022-09-25T19:40:18.127Z,11.00
2022-09-25T19:43:06.621Z,9.03
2022-09-25T19:45:55.972Z,10.80
2022-09-25T19:48:44.428Z,9.23
2022-09-25T19:51:31.634Z,8.25
2022-09-25T19:54:18.824Z,12.60
2022-09-25T19:57:10.707Z,8.73
2022-09-25T19:59:57.883Z,17.40
2022-09-25T20:02:48.787Z,12.70
2022-09-25T20:05:43.515Z,15.80
2022-09-25T20:08:30.762Z,11.43
2022-09-25T20:11:20.668Z,14.28
2022-09-25T20:14:08.656Z,14.60
2022-09-25T20:16:56.767Z,13.85
2022-09-25T20:19:44.005Z,11.28
2022-09-25T20:22:34.272Z,12.37
2022-09-25T20:25:22.228Z,16.73
2022-09-25T20:28:12.723Z,9.98
2022-09-25T20:31:05.136Z,8.50
2022-09-25T20:33:52.988Z,8.60
2022-09-25T20:36:40.465Z,12.95
2022-09-25T20:39:28.136Z,8.23
2022-09-25T20:42:17.071Z,10.32
2022-09-25T20:45:04.776Z,10.70
2022-09-25T20:47:53.815Z,13.32
2022-09-25T20:50:45.901Z,10.50
2022-09-25T20:53:33.331Z,7.83
2022-09-25T20:56:23.292Z,11.28
2022-09-25T20:59:11.223Z,10.35
2022-09-25T21:01:58.900Z,12.40
2022-09-25T21:04:46.290Z,9.63
2022-09-25T21:07:34.490Z,10.58
2022-09-25T21:10:21.727Z,12.78
2022-09-25T21:13:08.998Z,12.35
2022-09-25T21:15:59.726Z,9.60
2022-09-25T21:18:52.787Z,9.60
2022-09-25T21:21:40.466Z,8.93
2022-09-25T21:24:27.618Z,10.40
2022-09-25T21:27:14.787Z,13.45
2022-09-25T21:30:02.275Z,11.12
2022-09-25T21:32:49.527Z,8.10
2022-09-25T21:35:36.741Z,8.78
2022-09-25T21:38:23.957Z,9.43
2022-09-25T21:41:17.138Z,11.88
2022-09-25T21:44:07.620Z,10.45
2022-09-25T21:46:54.937Z,12.68
2022-09-25T21:49:42.051Z,10.13
2022-09-25T21:52:29.165Z,10.50
2022-09-25T21:55:17.075Z,12.65
2022-09-25T21:58:04.701Z,9.70
2022-09-25T22:00:52.134Z,8.63
2022-09-25T22:03:41.872Z,7.85
2022-09-25T22:06:33.429Z,6.17
2022-09-25T22:09:23.374Z,7.03
2022-09-25T22:12:10.909Z,6.33
2022-09-25T22:14:58.139Z,9.48
2022-09-25T22:17:45.635Z,9.20
2022-09-25T22:20:32.876Z,10.23
2022-09-25T22:23:21.681Z,6.15
2022-09-25T22:26:09.318Z,7.08
2022-09-25T22:28:57.089Z,10.63
2022-09-25T22:31:44.987Z,5.45
2022-09-25T22:34:32.094Z,5.92
2022-09-25T22:37:19.596Z,6.97
2022-09-25T22:40:07.520Z,4.37
2022-09-25T22:42:55.181Z,4.62
2022-09-25T22:45:50.843Z,5.00
2022-09-25T22:48:39.173Z,4.03
2022-09-25T22:51:26.839Z,5.37
2022-09-25T22:54:15.328Z,5.78
2022-09-25T22:57:02.460Z,6.42
2022-09-25T22:59:50.320Z,5.45
2022-09-25T23:02:37.893Z,7.53
2022-09-25T23:05:25.113Z,10.95
2022-09-25T23:08:13.038Z,8.08
2022-09-25T23:11:07.958Z,6.87
2022-09-25T23:13:59.554Z,10.50
2022-09-25T23:16:47.726Z,6.45
2022-09-25T23:19:35.415Z,4.83
2022-09-25T23:22:22.591Z,9.35
2022-09-25T23:25:10.245Z,5.42
2022-09-25T23:27:57.939Z,3.72
2022-09-25T23:30:45.343Z,4.75
2022-09-25T23:33:33.448Z,3.17
2022-09-25T23:36:23.177Z,6.80
2022-09-25T23:39:13.378Z,4.92
2022-09-25T23:42:00.677Z,9.88
2022-09-25T23:44:48.245Z,6.70
2022-09-25T23:47:35.643Z,4.00
2022-09-25T23:50:22.798Z,5.65
2022-09-25T23:53:10.288Z,6.72
2022-09-25T23:55:57.760Z,6.15
2022-09-25T23:58:45.286Z,4.92
